Time;durP1;ratioP1;P1;durP2;ratioP2;P2;SDS_P1;SDS_P2;PMS_P1;PMS_P2;Temp;Humidity;BMP_temperature;BMP_pressure;BME280_temperature;BME280_humidity;BME280_pressure;Samples;Min_cycle;Max_cycle;Signal;HPM_P1;HPM_P2
2023/03/26 00:00:42;;;;;;;4.53;1.30;;;13.20;53.80;;;;;;5048864;28;20456;-84
2023/03/26 00:03:10;;;;;;;4.40;1.40;;;13.30;53.20;;;;;;5044479;28;20456;-87
2023/03/26 00:05:37;;;;;;;3.07;1.27;;;13.30;53.10;;;;;;5045890;28;20951;-85
2023/03/26 00:08:07;;;;;;;2.50;1.00;;;13.30;53.40;;;;;;5074905;28;20454;-85
2023/03/26 00:10:35;;;;;;;2.13;1.77;;;13.30;53.10;;;;;;5024575;28;20478;-87
2023/03/26 00:13:02;;;;;;;3.90;1.23;;;13.30;53.50;;;;;;5058277;28;20460;-85
2023/03/26 00:15:29;;;;;;;3.20;1.50;;;13.20;54.10;;;;;;5047794;28;20456;-86
2023/03/26 00:17:59;;;;;;;5.30;1.70;;;13.00;54.10;;;;;;5036939;28;20468;-86
2023/03/26 00:20:27;;;;;;;3.23;1.63;;;13.20;54.30;;;;;;5054093;28;20441;-85
2023/03/26 00:22:54;;;;;;;6.40;1.30;;;13.30;54.50;;;;;;5071974;28;20502;-84
2023/03/26 00:25:22;;;;;;;3.60;1.73;;;13.40;54.00;;;;;;5029539;28;20441;-86
2023/03/26 00:27:49;;;;;;;1.80;1.33;;;13.30;54.50;;;;;;5047397;28;20468;-86
2023/03/26 00:30:16;;;;;;;1.10;1.00;;;13.40;54.30;;;;;;5049021;28;20537;-87
2023/03/26 00:32:43;;;;;;;9.17;1.77;;;13.30;54.10;;;;;;5028113;28;20460;-85
2023/03/26 00:35:12;;;;;;;3.60;2.70;;;13.10;54.60;;;;;;5046692;28;21105;-86
2023/03/26 00:37:41;;;;;;;6.43;1.70;;;13.20;54.90;;;;;;5038829;28;20992;-87
2023/03/26 00:40:10;;;;;;;3.93;1.70;;;13.20;54.80;;;;;;5048880;28;20456;-85
2023/03/26 00:42:37;;;;;;;5.80;1.63;;;13.20;54.40;;;;;;5041552;28;20953;-86
2023/03/26 00:45:06;;;;;;;2.20;1.40;;;13.20;54.50;;;;;;5036401;28;20456;-87
2023/03/26 00:47:33;;;;;;;6.70;1.87;;;13.20;54.50;;;;;;5057041;28;20460;-85
2023/03/26 00:50:02;;;;;;;2.17;1.57;;;13.20;54.50;;;;;;5042116;28;20463;-86
2023/03/26 00:52:31;;;;;;;3.80;1.33;;;13.00;54.60;;;;;;5042707;28;20535;-86
2023/03/26 00:54:58;;;;;;;6.13;1.60;;;13.00;54.90;;;;;;5050152;28;20458;-84
2023/03/26 00:57:29;;;;;;;7.30;1.70;;;13.00;54.70;;;;;;5040571;28;20483;-86
2023/03/26 00:59:56;;;;;;;7.10;1.70;;;12.90;54.70;;;;;;5072639;28;20448;-85
2023/03/26 01:02:26;;;;;;;6.63;1.80;;;13.00;54.70;;;;;;5044270;28;20486;-84
2023/03/26 01:05:03;;;;;;;4.63;1.43;;;12.90;54.80;;;;;;5059717;28;20452;-87
2023/03/26 01:07:31;;;;;;;7.33;1.70;;;13.00;54.80;;;;;;5029142;28;20482;-84
2023/03/26 01:09:59;;;;;;;5.70;2.00;;;13.10;54.80;;;;;;5062614;28;21135;-85
2023/03/26 01:12:30;;;;;;;5.13;1.33;;;13.00;54.20;;;;;;5048567;28;20448;-85
2023/03/26 01:15:00;;;;;;;3.40;1.60;;;13.00;54.50;;;;;;5031481;28;21000;-85
2023/03/26 01:17:32;;;;;;;4.87;1.20;;;12.90;54.60;;;;;;5023747;28;21018;-86
2023/03/26 01:20:11;;;;;;;6.40;2.63;;;12.90;54.70;;;;;;5057055;28;20451;-85
2023/03/26 01:22:46;;;;;;;3.23;1.40;;;13.00;54.60;;;;;;5047202;28;20479;-85
2023/03/26 01:25:14;;;;;;;4.23;1.50;;;13.20;54.00;;;;;;5030365;28;20436;-85
2023/03/26 01:27:45;;;;;;;4.40;1.90;;;13.10;54.10;;;;;;5045434;28;20522;-84
2023/03/26 01:30:20;;;;;;;6.73;2.07;;;13.10;53.80;;;;;;5042189;28;21604;-85
2023/03/26 01:32:57;;;;;;;6.03;1.80;;;12.90;54.10;;;;;;5064405;28;20447;-85
2023/03/26 01:35:39;;;;;;;3.97;1.20;;;13.00;53.90;;;;;;5057386;28;20452;-86
2023/03/26 01:38:22;;;;;;;12.20;2.40;;;12.80;54.40;;;;;;5057855;28;20447;-86
2023/03/26 01:40:57;;;;;;;3.83;1.53;;;12.80;54.30;;;;;;5045315;28;20444;-84
2023/03/26 01:43:32;;;;;;;6.07;1.63;;;12.70;54.40;;;;;;5025507;28;20467;-88
2023/03/26 01:46:02;;;;;;;6.40;2.00;;;12.90;54.10;;;;;;5062355;28;20471;-86
2023/03/26 01:48:32;;;;;;;3.73;1.37;;;12.60;54.60;;;;;;5039711;28;20969;-86
2023/03/26 01:51:00;;;;;;;6.93;1.53;;;12.70;54.40;;;;;;5046018;28;20993;-86
2023/03/26 01:53:28;;;;;;;8.67;2.13;;;12.50;54.80;;;;;;5052557;28;20448;-84
2023/03/26 01:56:06;;;;;;;6.73;2.73;;;12.40;55.20;;;;;;5063156;28;20483;-86
2023/03/26 01:58:41;;;;;;;4.67;1.43;;;12.40;55.00;;;;;;5041603;28;20460;-84
2023/03/26 02:01:23;;;;;;;7.17;1.40;;;12.30;55.00;;;;;;5030552;28;20452;-86
2023/03/26 02:03:57;;;;;;;9.27;1.63;;;12.20;55.50;;;;;;5025447;28;20566;-85
2023/03/26 02:06:33;;;;;;;5.97;1.70;;;12.00;56.00;;;;;;5027762;28;20562;-86
2023/03/26 02:09:05;;;;;;;10.37;2.00;;;12.20;55.80;;;;;;5042240;28;20468;-85
2023/03/26 02:11:34;;;;;;;8.53;1.60;;;12.00;56.10;;;;;;5047158;28;20464;-85
2023/03/26 02:14:01;;;;;;;5.00;1.80;;;11.90;56.40;;;;;;5053296;28;20464;-86
2023/03/26 02:16:28;;;;;;;8.03;1.60;;;11.90;56.50;;;;;;5029461;28;20469;-85
2023/03/26 02:18:58;;;;;;;4.87;1.50;;;11.90;56.60;;;;;;5044472;28;20681;-86
2023/03/26 02:21:26;;;;;;;8.33;1.67;;;11.80;56.80;;;;;;5043545;28;21024;-85
2023/03/26 02:24:01;;;;;;;9.03;1.70;;;11.70;57.20;;;;;;5061854;28;20544;-85
2023/03/26 02:26:30;;;;;;;3.53;1.83;;;11.50;57.50;;;;;;5048168;28;21033;-86
2023/03/26 02:29:09;;;;;;;1.63;1.40;;;11.40;58.00;;;;;;5043870;28;20440;-86
2023/03/26 02:31:38;;;;;;;5.20;1.40;;;11.20;58.70;;;;;;5055903;28;20465;-83
2023/03/26 02:34:05;;;;;;;10.73;2.00;;;11.10;59.10;;;;;;5043380;28;20440;-86
2023/03/26 02:36:35;;;;;;;5.53;1.87;;;11.10;59.10;;;;;;5023873;28;20470;-85
2023/03/26 02:39:04;;;;;;;6.10;1.90;;;11.00;59.50;;;;;;5058013;28;20448;-84
2023/03/26 02:41:34;;;;;;;3.10;1.67;;;10.90;59.50;;;;;;5058859;28;20447;-85
2023/03/26 02:44:10;;;;;;;3.00;1.60;;;11.00;59.50;;;;;;5041887;28;20449;-85
2023/03/26 02:47:09;;;;;;;4.80;1.60;;;11.00;59.60;;;;;;5038303;28;20534;-85
2023/03/26 02:49:55;;;;;;;2.90;1.60;;;11.20;59.30;;;;;;5054761;28;20452;-85
2023/03/26 02:52:29;;;;;;;9.10;2.03;;;11.30;59.20;;;;;;5045926;28;20452;-85
2023/03/26 02:54:58;;;;;;;3.20;1.30;;;11.30;59.10;;;;;;5045481;28;20483;-84
2023/03/26 02:57:26;;;;;;;6.50;1.50;;;11.10;59.40;;;;;;5047573;28;20576;-86
2023/03/26 03:00:14;;;;;;;3.30;1.33;;;11.10;59.30;;;;;;5059341;28;20582;-86
2023/03/26 03:02:51;;;;;;;6.20;1.33;;;11.20;59.40;;;;;;5052464;28;20458;-86
2023/03/26 03:05:27;;;;;;;7.50;1.90;;;11.30;58.90;;;;;;5061545;28;20451;-86
2023/03/26 03:08:13;;;;;;;4.20;1.63;;;11.20;59.10;;;;;;5040400;28;20448;-85
2023/03/26 03:10:57;;;;;;;4.80;1.97;;;11.60;58.40;;;;;;5043474;28;20487;-86
2023/03/26 03:13:37;;;;;;;11.00;3.10;;;11.80;57.90;;;;;;5027980;28;20463;-85
2023/03/26 03:16:06;;;;;;;5.60;1.30;;;11.90;57.90;;;;;;5046077;28;20475;-84
2023/03/26 03:18:33;;;;;;;6.33;1.77;;;11.80;57.60;;;;;;5055890;28;20463;-85
2023/03/26 03:21:01;;;;;;;3.37;1.40;;;11.90;57.90;;;;;;5044765;28;20448;-84
2023/03/26 03:23:28;;;;;;;5.80;1.77;;;11.90;57.80;;;;;;5025364;28;20436;-86
2023/03/26 03:26:11;;;;;;;8.43;2.10;;;12.00;57.80;;;;;;5039230;28;20475;-84
2023/03/26 03:28:39;;;;;;;3.90;1.20;;;12.00;57.30;;;;;;5029141;28;21344;-84
2023/03/26 03:31:08;;;;;;;5.37;1.60;;;12.00;57.40;;;;;;5065311;28;20475;-85
2023/03/26 03:33:36;;;;;;;6.20;1.60;;;12.00;57.30;;;;;;5050370;28;20448;-85
2023/03/26 03:36:09;;;;;;;2.83;1.47;;;11.90;57.50;;;;;;5064017;28;20976;-85
2023/03/26 03:38:36;;;;;;;4.33;1.67;;;11.70;57.90;;;;;;5064647;28;20447;-86
2023/03/26 03:41:03;;;;;;;3.00;1.60;;;11.80;57.90;;;;;;5036395;28;20471;-89
2023/03/26 03:43:32;;;;;;;8.03;2.37;;;11.80;58.00;;;;;;5058044;28;20528;-86
2023/03/26 03:46:13;;;;;;;5.43;1.70;;;12.00;57.80;;;;;;5041454;28;20547;-85
2023/03/26 03:48:48;;;;;;;8.20;1.70;;;11.90;57.80;;;;;;5023800;28;20476;-84
2023/03/26 03:51:18;;;;;;;2.63;1.90;;;12.00;57.80;;;;;;5053572;28;20476;-84
2023/03/26 03:53:51;;;;;;;2.73;1.27;;;12.20;57.20;;;;;;5050717;28;20460;-86
2023/03/26 03:56:28;;;;;;;5.27;2.03;;;12.20;56.90;;;;;;5049145;28;20475;-85
2023/03/26 03:59:16;;;;;;;4.23;1.27;;;12.30;56.90;;;;;;5034029;28;20439;-86
2023/03/26 04:01:45;;;;;;;6.47;2.10;;;12.50;56.50;;;;;;5045294;28;20469;-86
2023/03/26 04:04:24;;;;;;;4.90;1.50;;;12.50;56.10;;;;;;5028808;28;20443;-86
2023/03/26 04:07:00;;;;;;;3.23;1.80;;;12.40;56.50;;;;;;5031597;28;20471;-86
2023/03/26 04:09:34;;;;;;;2.27;1.93;;;12.10;57.10;;;;;;5032227;28;20824;-85
2023/03/26 04:12:09;;;;;;;3.67;1.40;;;12.10;57.20;;;;;;5048177;28;20470;-85
2023/03/26 04:14:40;;;;;;;6.73;1.73;;;12.00;57.50;;;;;;5061410;28;20460;-86
2023/03/26 04:17:21;;;;;;;8.90;2.03;;;11.70;57.90;;;;;;5064926;28;20483;-86
2023/03/26 04:19:49;;;;;;;8.00;1.80;;;11.50;58.30;;;;;;5042765;28;20460;-86
2023/03/26 04:22:18;;;;;;;12.83;2.27;;;11.50;58.70;;;;;;5043083;28;21019;-84
2023/03/26 04:24:54;;;;;;;13.40;3.27;;;11.60;58.80;;;;;;5050694;28;20451;-87
2023/03/26 04:27:48;;;;;;;3.47;1.37;;;11.40;58.90;;;;;;5037494;28;20549;-87
2023/03/26 04:30:20;;;;;;;3.00;1.43;;;11.50;59.00;;;;;;5032793;28;20505;-87
2023/03/26 04:32:57;;;;;;;6.23;1.90;;;11.50;58.90;;;;;;5050684;28;20451;-86
2023/03/26 04:35:24;;;;;;;3.40;1.30;;;11.50;59.00;;;;;;5050144;28;20480;-86
2023/03/26 04:37:55;;;;;;;3.23;1.50;;;11.60;58.70;;;;;;5034893;28;20455;-86
2023/03/26 04:40:29;;;;;;;6.17;1.93;;;11.40;59.30;;;;;;5043133;28;20435;-85
2023/03/26 04:43:19;;;;;;;8.00;2.03;;;11.40;59.50;;;;;;5048041;28;20571;-86
2023/03/26 04:45:55;;;;;;;2.60;1.33;;;11.30;59.40;;;;;;5073029;28;20455;-87
2023/03/26 04:48:26;;;;;;;5.50;2.33;;;11.20;60.00;;;;;;5059769;28;20449;-85
2023/03/26 04:50:53;;;;;;;4.47;2.20;;;11.40;59.70;;;;;;5050354;28;20524;-84
2023/03/26 04:53:23;;;;;;;5.10;1.30;;;11.60;59.50;;;;;;5032784;28;20487;-86
2023/03/26 04:56:08;;;;;;;8.27;1.63;;;11.70;58.90;;;;;;5073336;28;20468;-84
2023/03/26 04:58:58;;;;;;;5.73;1.77;;;12.00;58.70;;;;;;5061666;28;20443;-87
2023/03/26 05:01:27;;;;;;;4.43;1.77;;;12.00;58.40;;;;;;5045911;28;20527;-86
2023/03/26 05:03:55;;;;;;;3.10;1.70;;;12.00;58.00;;;;;;5060048;28;20440;-86
2023/03/26 05:06:24;;;;;;;2.80;1.83;;;12.20;57.90;;;;;;5040592;28;20472;-84
2023/03/26 05:08:51;;;;;;;4.10;1.50;;;12.30;57.50;;;;;;5047540;28;20448;-86
2023/03/26 05:11:35;;;;;;;4.90;1.60;;;12.30;56.80;;;;;;5032119;28;20463;-84
2023/03/26 05:14:02;;;;;;;6.03;1.73;;;12.10;57.20;;;;;;5059156;28;20453;-84
2023/03/26 05:16:30;;;;;;;6.80;1.60;;;12.20;57.20;;;;;;5057935;28;20475;-86
2023/03/26 05:19:05;;;;;;;20.53;2.63;;;12.20;57.10;;;;;;5045968;28;20477;-85
2023/03/26 05:21:35;;;;;;;2.93;1.67;;;12.30;57.20;;;;;;5059244;28;20444;-86
2023/03/26 05:24:02;;;;;;;3.47;1.33;;;12.60;56.80;;;;;;5057715;28;20477;-85
2023/03/26 05:26:30;;;;;;;2.73;1.50;;;12.70;56.20;;;;;;5044810;28;20464;-84
2023/03/26 05:28:58;;;;;;;6.53;1.80;;;12.80;56.10;;;;;;5053008;28;21036;-86
2023/03/26 05:31:44;;;;;;;8.43;1.77;;;12.80;55.60;;;;;;5031754;28;20467;-85
2023/03/26 05:34:12;;;;;;;3.03;1.57;;;12.50;56.00;;;;;;5026848;28;20480;-86
2023/03/26 05:36:41;;;;;;;3.67;1.40;;;12.60;56.00;;;;;;5043530;28;20469;-85
2023/03/26 05:39:28;;;;;;;4.40;1.43;;;12.60;56.10;;;;;;5074731;28;20453;-87
2023/03/26 05:42:01;;;;;;;7.70;2.00;;;12.60;56.20;;;;;;5067282;28;20475;-87
2023/03/26 05:44:40;;;;;;;3.83;1.40;;;12.60;55.90;;;;;;5049325;28;20531;-87
2023/03/26 05:47:16;;;;;;;8.27;2.23;;;12.70;56.30;;;;;;5049288;28;20471;-85
2023/03/26 05:49:45;;;;;;;7.07;2.00;;;12.80;56.20;;;;;;5029947;28;20456;-86
2023/03/26 05:52:14;;;;;;;10.23;2.07;;;12.60;56.10;;;;;;5031622;28;20467;-84
2023/03/26 05:55:14;;;;;;;3.07;1.40;;;12.60;56.20;;;;;;5058278;28;20442;-86
2023/03/26 05:58:02;;;;;;;3.77;2.00;;;12.70;56.60;;;;;;5033226;28;21052;-86
2023/03/26 06:00:47;;;;;;;2.97;1.50;;;12.80;56.30;;;;;;5052745;28;20440;-86
2023/03/26 06:03:18;;;;;;;3.77;1.67;;;12.80;56.00;;;;;;5041865;28;20459;-86
2023/03/26 06:06:18;;;;;;;2.60;1.67;;;12.60;56.10;;;;;;5043484;28;20475;-85
2023/03/26 06:08:57;;;;;;;8.00;2.10;;;12.60;56.90;;;;;;5032651;28;20701;-84
2023/03/26 06:11:24;;;;;;;4.03;1.57;;;12.70;57.00;;;;;;5057363;28;20482;-86
2023/03/26 06:13:51;;;;;;;4.13;2.20;;;12.70;57.10;;;;;;5047173;28;20458;-86
2023/03/26 06:16:18;;;;;;;4.00;1.97;;;12.60;57.00;;;;;;5060156;28;20464;-85
2023/03/26 06:18:53;;;;;;;11.50;2.73;;;12.80;57.10;;;;;;5048550;28;20467;-85
2023/03/26 06:21:31;;;;;;;3.30;1.70;;;13.00;56.80;;;;;;5064346;28;20453;-84
2023/03/26 06:24:05;;;;;;;5.43;1.83;;;13.20;56.60;;;;;;5027237;28;20963;-86
2023/03/26 06:26:53;;;;;;;2.37;2.13;;;13.30;56.70;;;;;;5042410;28;20980;-86
2023/03/26 06:29:38;;;;;;;6.37;2.37;;;13.40;57.10;;;;;;5059266;28;20505;-86
2023/03/26 06:32:16;;;;;;;9.57;2.90;;;13.40;56.50;;;;;;5041381;28;20895;-86
2023/03/26 06:34:47;;;;;;;8.63;3.80;;;13.30;56.50;;;;;;5030091;28;20447;-86
2023/03/26 06:37:16;;;;;;;5.33;1.63;;;13.20;56.30;;;;;;5055842;28;20472;-85
2023/03/26 06:39:44;;;;;;;4.97;1.63;;;13.30;56.40;;;;;;5030668;28;20806;-84
2023/03/26 06:42:20;;;;;;;5.50;1.67;;;13.10;56.40;;;;;;5040611;28;20502;-86
2023/03/26 06:45:08;;;;;;;3.20;2.00;;;13.10;56.50;;;;;;5058361;28;20445;-84
2023/03/26 06:48:14;;;;;;;3.20;2.07;;;13.10;56.40;;;;;;5013031;28;20442;-87
2023/03/26 06:50:56;;;;;;;13.10;3.57;;;13.20;56.80;;;;;;5026324;28;20473;-86
2023/03/26 06:53:53;;;;;;;6.47;2.00;;;13.20;56.90;;;;;;5047567;28;20446;-86
2023/03/26 06:56:44;;;;;;;8.83;3.40;;;13.30;56.70;;;;;;5048696;28;20460;-85
2023/03/26 06:59:29;;;;;;;12.80;5.63;;;13.40;57.00;;;;;;5042907;28;20865;-85
2023/03/26 07:02:15;;;;;;;13.83;5.90;;;13.40;56.90;;;;;;5044956;28;20455;-86
2023/03/26 07:05:01;;;;;;;10.07;3.80;;;13.40;56.80;;;;;;5041062;28;20441;-85
2023/03/26 07:07:51;;;;;;;8.37;2.60;;;13.50;56.80;;;;;;5042038;28;20456;-86
2023/03/26 07:10:39;;;;;;;12.33;2.40;;;13.30;56.60;;;;;;5039564;28;20435;-85
2023/03/26 07:13:17;;;;;;;4.10;2.07;;;13.20;56.70;;;;;;5029604;28;20475;-87
2023/03/26 07:15:56;;;;;;;7.30;2.37;;;13.40;57.00;;;;;;5062878;28;20531;-86
2023/03/26 07:18:36;;;;;;;8.00;1.97;;;13.30;56.20;;;;;;5063615;28;20491;-86
2023/03/26 07:21:05;;;;;;;31.57;21.23;;;13.20;56.60;;;;;;5057740;28;20464;-84
2023/03/26 07:23:33;;;;;;;11.93;2.37;;;13.10;56.80;;;;;;5037831;28;20444;-84
2023/03/26 07:26:31;;;;;;;6.10;2.33;;;13.20;56.60;;;;;;5041653;28;20469;-86
2023/03/26 07:29:17;;;;;;;7.50;5.10;;;13.30;56.60;;;;;;5047032;28;20452;-86
2023/03/26 07:32:13;;;;;;;94.77;63.57;;;13.30;56.90;;;;;;5056058;28;20592;-86
2023/03/26 07:35:06;;;;;;;11.47;8.63;;;13.30;56.90;;;;;;5069394;28;20440;-85
2023/03/26 07:38:02;;;;;;;6.70;3.00;;;13.40;57.00;;;;;;5071381;28;20499;-86
2023/03/26 07:41:05;;;;;;;8.60;3.63;;;13.70;57.10;;;;;;5057846;28;20449;-83
2023/03/26 07:44:12;;;;;;;6.97;2.87;;;13.80;57.50;;;;;;5043739;28;21157;-84
2023/03/26 07:47:24;;;;;;;23.67;10.97;;;13.70;58.10;;;;;;5029852;28;20468;-84
2023/03/26 07:50:14;;;;;;;14.47;7.57;;;13.60;58.10;;;;;;5050487;28;20432;-85
2023/03/26 07:53:01;;;;;;;7.30;3.90;;;13.60;58.50;;;;;;5043830;28;20496;-85
2023/03/26 07:55:46;;;;;;;17.33;6.20;;;13.50;57.80;;;;;;5038675;28;20444;-85
2023/03/26 07:58:55;;;;;;;17.50;11.90;;;13.30;58.70;;;;;;5069205;28;20452;-84
2023/03/26 08:01:54;;;;;;;15.13;8.73;;;13.30;59.80;;;;;;5039440;28;20443;-85
2023/03/26 08:04:47;;;;;;;10.57;5.80;;;13.30;59.80;;;;;;5060224;28;20449;-85
2023/03/26 08:07:49;;;;;;;4.90;4.17;;;13.40;58.50;;;;;;5045624;28;20823;-86
2023/03/26 08:10:27;;;;;;;5.47;2.50;;;13.50;59.00;;;;;;5043824;28;20445;-86
2023/03/26 08:13:15;;;;;;;8.17;2.33;;;13.40;58.20;;;;;;5027296;28;20553;-86
2023/03/26 08:15:52;;;;;;;9.63;5.30;;;13.20;59.20;;;;;;5067956;28;20460;-86
2023/03/26 08:18:31;;;;;;;16.53;5.53;;;13.20;60.20;;;;;;5072734;28;20448;-85
2023/03/26 08:21:00;;;;;;;5.00;3.50;;;13.50;59.80;;;;;;5048437;28;20453;-85
2023/03/26 08:23:34;;;;;;;4.33;2.10;;;13.50;59.10;;;;;;5054225;28;21013;-85
2023/03/26 08:26:08;;;;;;;4.60;2.27;;;13.60;59.00;;;;;;5044097;28;20456;-86
2023/03/26 08:28:47;;;;;;;3.87;2.00;;;13.50;58.50;;;;;;5034957;28;20434;-87
2023/03/26 08:31:16;;;;;;;20.13;8.80;;;13.20;59.50;;;;;;5077791;28;20542;-85
2023/03/26 08:33:44;;;;;;;8.33;4.90;;;13.00;60.00;;;;;;5059767;28;20526;-87
2023/03/26 08:36:11;;;;;;;3.63;2.43;;;12.50;61.70;;;;;;5042756;28;20492;-85
2023/03/26 08:38:38;;;;;;;11.70;5.73;;;12.70;62.60;;;;;;5043384;28;20460;-85
2023/03/26 08:41:41;;;;;;;5.37;2.90;;;12.60;62.50;;;;;;5065606;28;20451;-86
2023/03/26 08:44:51;;;;;;;4.10;1.93;;;12.70;63.10;;;;;;5016836;28;20799;-87
2023/03/26 08:47:45;;;;;;;13.97;10.63;;;13.00;62.40;;;;;;5049184;28;20472;-84
2023/03/26 08:50:41;;;;;;;13.10;5.50;;;13.40;61.80;;;;;;5047706;28;21224;-85
2023/03/26 08:53:34;;;;;;;5.23;3.60;;;13.40;60.80;;;;;;5032211;28;20536;-85
2023/03/26 08:56:18;;;;;;;3.73;2.50;;;13.50;61.00;;;;;;5066312;28;20464;-85
2023/03/26 08:59:27;;;;;;;4.00;2.73;;;13.40;61.50;;;;;;5040285;28;20505;-85
2023/03/26 09:02:28;;;;;;;11.63;5.10;;;13.50;61.70;;;;;;5029636;28;20460;-86
2023/03/26 09:05:19;;;;;;;15.73;12.53;;;13.20;61.40;;;;;;5010577;28;20454;-86
2023/03/26 09:08:26;;;;;;;4.70;3.57;;;13.10;62.80;;;;;;5058353;28;20495;-86
2023/03/26 09:11:21;;;;;;;3.43;2.27;;;13.30;62.80;;;;;;5058307;28;21234;-87
2023/03/26 09:14:22;;;;;;;6.20;3.57;;;13.60;62.40;;;;;;5045522;28;20499;-87
2023/03/26 09:17:37;;;;;;;3.30;2.23;;;13.80;62.20;;;;;;5043342;28;20464;-87
2023/03/26 09:20:48;;;;;;;9.03;2.90;;;14.00;61.40;;;;;;5030127;28;20522;-87
2023/03/26 09:23:43;;;;;;;7.27;3.03;;;13.90;60.90;;;;;;5049032;28;20484;-87
2023/03/26 09:26:32;;;;;;;5.13;2.60;;;14.10;61.10;;;;;;5007961;28;20547;-87
2023/03/26 09:29:34;;;;;;;7.80;2.93;;;14.20;60.50;;;;;;5039894;28;20494;-86
2023/03/26 09:32:50;;;;;;;4.17;2.87;;;14.30;60.80;;;;;;5045542;28;20499;-87
2023/03/26 09:35:37;;;;;;;9.20;3.40;;;14.20;61.50;;;;;;5053064;28;20459;-87
2023/03/26 09:38:18;;;;;;;7.53;3.17;;;14.10;61.50;;;;;;5082934;28;20846;-83
2023/03/26 09:40:55;;;;;;;6.07;2.30;;;14.10;61.90;;;;;;5057735;28;20515;-84
2023/03/26 09:43:38;;;;;;;7.40;4.00;;;13.90;60.20;;;;;;5068302;28;20476;-86
2023/03/26 09:46:19;;;;;;;3.53;3.13;;;13.70;61.60;;;;;;5041960;28;20475;-86
2023/03/26 09:49:09;;;;;;;8.93;2.57;;;13.80;62.80;;;;;;5057525;28;20459;-87
2023/03/26 09:51:55;;;;;;;5.73;2.83;;;13.80;62.60;;;;;;5049051;28;20513;-85
2023/03/26 09:54:52;;;;;;;2.60;1.70;;;13.60;62.70;;;;;;5037472;28;21090;-86
2023/03/26 09:57:36;;;;;;;2.73;2.07;;;13.40;62.80;;;;;;5039196;28;20463;-85
2023/03/26 10:00:27;;;;;;;12.27;2.80;;;13.30;63.10;;;;;;5053923;28;20468;-84
2023/03/26 10:03:21;;;;;;;11.50;3.10;;;13.10;62.50;;;;;;5039303;28;20444;-88
2023/03/26 10:06:10;;;;;;;6.13;2.97;;;13.20;63.00;;;;;;5042437;28;20539;-87
2023/03/26 10:08:51;;;;;;;6.20;2.47;;;13.30;63.50;;;;;;5048043;28;21228;-86
2023/03/26 10:11:24;;;;;;;4.93;2.30;;;13.40;62.10;;;;;;5063134;28;20450;-86
2023/03/26 10:14:09;;;;;;;6.70;2.07;;;13.60;62.50;;;;;;5046868;28;20464;-87
2023/03/26 10:16:51;;;;;;;7.70;2.00;;;13.60;62.70;;;;;;5041146;28;20493;-86
2023/03/26 10:19:41;;;;;;;2.90;1.70;;;13.70;61.40;;;;;;5039923;28;20459;-85
2023/03/26 10:22:20;;;;;;;2.00;1.80;;;13.50;61.50;;;;;;5068205;28;20462;-86
2023/03/26 10:25:13;;;;;;;3.93;1.73;;;13.50;61.20;;;;;;5082543;28;20441;-88
2023/03/26 10:27:49;;;;;;;6.47;2.30;;;13.40;60.10;;;;;;5011778;28;20474;-87
2023/03/26 10:30:42;;;;;;;5.70;2.43;;;13.50;61.60;;;;;;5037585;28;20443;-86
2023/03/26 10:33:15;;;;;;;6.03;1.80;;;13.60;61.00;;;;;;5055324;28;20475;-86
2023/03/26 10:35:54;;;;;;;3.33;1.60;;;13.80;61.60;;;;;;5052700;28;20446;-85
2023/03/26 10:38:32;;;;;;;4.67;1.50;;;14.00;60.50;;;;;;5053837;28;20452;-89
2023/03/26 10:41:06;;;;;;;3.90;1.83;;;14.00;60.70;;;;;;5042668;28;20456;-86
2023/03/26 10:43:59;;;;;;;6.20;1.83;;;13.90;58.10;;;;;;5044968;28;20458;-88
2023/03/26 10:46:52;;;;;;;2.20;1.43;;;13.90;60.60;;;;;;5047993;28;20464;-86
2023/03/26 10:49:40;;;;;;;2.00;1.77;;;13.80;60.40;;;;;;5046890;28;20447;-87
2023/03/26 10:52:11;;;;;;;2.30;1.43;;;13.60;60.70;;;;;;5052597;28;20453;-86
2023/03/26 10:54:50;;;;;;;3.73;2.30;;;13.70;60.00;;;;;;5034650;28;20468;-88
2023/03/26 10:57:29;;;;;;;2.30;1.70;;;13.90;60.80;;;;;;5051164;28;20474;-86
2023/03/26 11:00:01;;;;;;;1.97;1.50;;;14.10;60.40;;;;;;5037232;28;20443;-88
2023/03/26 11:02:34;;;;;;;4.03;1.40;;;14.00;61.30;;;;;;5040365;28;20460;-87
2023/03/26 11:05:27;;;;;;;3.90;2.03;;;13.90;61.40;;;;;;5054518;28;20503;-86
2023/03/26 11:08:01;;;;;;;9.20;3.40;;;13.70;60.80;;;;;;5046933;28;20459;-86
2023/03/26 11:10:39;;;;;;;23.70;6.90;;;13.90;60.20;;;;;;5037826;28;21225;-88
2023/03/26 11:13:17;;;;;;;8.30;2.50;;;14.00;59.50;;;;;;5035224;28;21077;-86
2023/03/26 11:15:51;;;;;;;4.20;1.63;;;14.00;59.30;;;;;;5028116;28;20467;-86
2023/03/26 11:18:26;;;;;;;1.40;1.20;;;14.10;61.30;;;;;;5034706;28;20460;-86
2023/03/26 11:21:04;;;;;;;5.57;3.03;;;14.60;61.50;;;;;;5028837;28;20916;-87
2023/03/26 11:23:39;;;;;;;3.60;1.73;;;14.60;63.10;;;;;;5026312;28;20433;-86
2023/03/26 11:26:14;;;;;;;1.77;1.30;;;14.90;60.00;;;;;;5045758;28;20482;-86
2023/03/26 11:29:03;;;;;;;5.00;1.50;;;15.20;58.30;;;;;;5031764;28;20455;-85
2023/03/26 11:31:49;;;;;;;1.33;1.20;;;15.20;59.20;;;;;;5046993;28;20455;-86
2023/03/26 11:34:19;;;;;;;20.83;8.10;;;15.20;59.50;;;;;;5042860;28;20476;-86
2023/03/26 11:36:52;;;;;;;13.17;5.07;;;15.00;57.50;;;;;;5049317;28;20477;-87
2023/03/26 11:39:24;;;;;;;30.17;7.90;;;14.90;57.30;;;;;;5034946;28;20455;-86
2023/03/26 11:42:04;;;;;;;2.80;1.73;;;14.70;57.10;;;;;;5030531;28;20464;-85
2023/03/26 11:44:47;;;;;;;3.00;1.67;;;15.00;58.50;;;;;;5041029;28;20468;-85
2023/03/26 11:47:20;;;;;;;4.23;1.30;;;15.50;58.50;;;;;;5032856;28;20487;-86
2023/03/26 11:49:51;;;;;;;1.33;1.23;;;15.80;56.30;;;;;;5047490;28;20479;-86
2023/03/26 11:52:19;;;;;;;3.00;2.00;;;16.30;55.80;;;;;;5051439;28;20460;-86
2023/03/26 11:54:47;;;;;;;5.80;1.90;;;16.40;56.00;;;;;;5059766;28;20488;-85
2023/03/26 11:57:22;;;;;;;1.40;1.10;;;16.50;57.20;;;;;;5078479;28;21000;-86
2023/03/26 11:59:54;;;;;;;3.03;1.73;;;16.80;55.20;;;;;;5044132;28;20456;-84
2023/03/26 12:02:27;;;;;;;1.93;1.00;;;17.00;54.20;;;;;;5061482;28;20450;-85
2023/03/26 12:05:12;;;;;;;3.27;1.40;;;17.20;54.50;;;;;;5048776;28;20486;-85
2023/03/26 12:07:46;;;;;;;2.43;1.20;;;16.50;52.90;;;;;;5065361;28;21000;-85
2023/03/26 12:10:30;;;;;;;2.33;1.40;;;16.20;54.30;;;;;;5059363;28;21000;-86
2023/03/26 12:13:06;;;;;;;3.20;1.30;;;16.30;55.00;;;;;;5033522;28;20463;-83
2023/03/26 12:15:33;;;;;;;4.63;1.33;;;16.20;53.50;;;;;;5050199;28;20829;-88
2023/03/26 12:18:20;;;;;;;2.00;1.20;;;16.10;55.40;;;;;;5050486;28;20513;-85
2023/03/26 12:20:49;;;;;;;4.20;1.73;;;15.80;55.50;;;;;;5040686;28;20455;-85
2023/03/26 12:23:36;;;;;;;2.30;1.23;;;15.80;56.10;;;;;;5034439;28;20535;-85
2023/03/26 12:26:16;;;;;;;2.47;1.60;;;15.40;56.60;;;;;;5044003;28;20440;-86
2023/03/26 12:28:50;;;;;;;3.40;1.70;;;15.40;57.40;;;;;;5029004;28;20467;-85
2023/03/26 12:31:19;;;;;;;2.77;1.50;;;15.50;56.80;;;;;;5061479;28;20458;-87
2023/03/26 12:34:02;;;;;;;3.33;1.50;;;15.40;55.70;;;;;;5063322;28;20464;-85
2023/03/26 12:36:32;;;;;;;2.83;1.83;;;15.20;57.00;;;;;;5065911;28;20483;-85
2023/03/26 12:39:19;;;;;;;4.83;2.90;;;15.00;59.20;;;;;;5051368;28;20475;-86
2023/03/26 12:41:55;;;;;;;4.50;3.50;;;15.20;57.30;;;;;;5056285;28;20440;-85
2023/03/26 12:44:26;;;;;;;6.73;2.37;;;15.00;59.10;;;;;;5059425;28;20439;-85
2023/03/26 12:47:08;;;;;;;1.70;1.50;;;15.30;58.40;;;;;;5049895;28;20835;-85
2023/03/26 12:49:36;;;;;;;4.53;2.33;;;15.70;59.20;;;;;;5041933;28;20452;-85
2023/03/26 12:52:20;;;;;;;8.50;3.20;;;15.90;57.40;;;;;;5043768;28;20451;-85
2023/03/26 12:54:53;;;;;;;2.63;2.40;;;15.90;57.60;;;;;;5030111;28;20465;-85
2023/03/26 12:57:22;;;;;;;2.20;2.00;;;16.10;55.40;;;;;;5050333;28;20495;-85
2023/03/26 13:00:14;;;;;;;2.43;1.87;;;16.10;56.20;;;;;;5048321;28;20453;-86
2023/03/26 13:02:58;;;;;;;2.47;1.70;;;15.90;55.80;;;;;;5052524;28;20459;-86
2023/03/26 13:05:41;;;;;;;2.97;2.03;;;15.90;58.00;;;;;;5061099;28;20477;-86
2023/03/26 13:08:52;;;;;;;2.23;2.03;;;15.90;56.00;;;;;;5026739;28;20464;-85
2023/03/26 13:11:29;;;;;;;6.07;3.17;;;15.80;55.70;;;;;;5064825;28;20451;-84
2023/03/26 13:14:27;;;;;;;2.70;1.50;;;15.40;55.30;;;;;;5056163;28;20555;-85
2023/03/26 13:16:58;;;;;;;3.73;1.50;;;15.10;54.60;;;;;;5041105;28;20480;-84
2023/03/26 13:19:33;;;;;;;2.50;1.63;;;15.20;56.40;;;;;;5066350;28;20556;-84
2023/03/26 13:22:11;;;;;;;2.97;1.87;;;15.20;57.00;;;;;;5059704;28;20440;-86
2023/03/26 13:24:53;;;;;;;1.80;1.60;;;15.10;57.20;;;;;;5046901;28;20966;-85
2023/03/26 13:27:31;;;;;;;2.30;1.60;;;14.70;58.90;;;;;;5055375;28;20560;-85
2023/03/26 13:30:02;;;;;;;2.00;1.80;;;14.70;59.00;;;;;;5030939;28;20440;-86
2023/03/26 13:32:41;;;;;;;3.17;2.87;;;14.70;59.10;;;;;;5032109;28;20454;-85
2023/03/26 13:35:19;;;;;;;2.03;1.33;;;15.10;60.00;;;;;;5046972;28;20460;-85
2023/03/26 13:37:51;;;;;;;2.90;1.60;;;15.40;58.90;;;;;;5046195;28;20472;-84
2023/03/26 13:40:26;;;;;;;1.53;1.43;;;15.80;56.50;;;;;;5039310;28;20455;-85
2023/03/26 13:43:22;;;;;;;2.30;1.60;;;16.10;57.40;;;;;;5029331;28;21651;-85